Hauptseite
METAR-TAF:

METAR-TAF

Flughäfen :

Flughafen Cusco

Cusco, Peru

Breite: 13-33S, Länge: 071-59W, Höhe: 3248 m

Beobachtung

Neuester Wetterbericht von vor 39 Minuten, um 18:30 UTC
Wind 4 kt aus unterschiedlichen Richtungen
Temperatur 21°C
Luftfeuchtigkeit 23%
Luftdruck 1032 hPa
Sichtweite 10 km oder mehr
Leicht bewölkt in der Höhe von 5000 ft

METAR: SPZO 251830Z VRB04KT 9999 FEW050 21/M01 Q1032 NOSIG RMK BIRD HAZARD RWY 10/28

Zeit: 14:09 (19:09 UTC)

Prognose

Neuester Wetterbericht von vor 2 Stunden und 9 Minuten, um 17:00 UTC
Gültige Prognose vom 25 um 18 UTC bis 26 um 18 UTC
Wind 5 kt aus unterschiedlichen Richtungen
Sichtweite 10 km oder mehr
Leicht bewölkt in der Höhe von 5000 ft
Zeitweise
vom 25 um 18 UTC bis 25 um 22 UTC
Wind 15 kt aus West

TAF: SPZO 251700Z 2518/2618 VRB05KT 9999 FEW050 TX22/2519Z TN01/2611Z TEMPO 2518/2522 28015KT

Wetterbeobachtungen und Prognosen von mehr als 4000 Flughäfen (METAR und TAF Bericht).

Die verfügbaren Stationen werden durch gelbe und rote Markierungen auf der Karte dargestellt.

Führen Sie die Maus auf sie, um den Namen der Station zu sehen.

Darauf klicken, um die Beobachtung von Wetterbeobachtungen und Prognosen zu sehen.

Um die Karte zu ändern : klicken Sie auf den grünen Tasten mit einem schwarzen Kreuz Zum Vergrößern, auf den grünen Button mit einem Gedankenstrich zu verkleinern, oder auf die grünen Pfeile für benachbarte Karten.


METAR-TAF: